createdAt,value
2022-11-29T01:27:45.766Z,82.95
2022-11-29T01:32:24.019Z,83.77
2022-11-29T01:37:23.957Z,82.60
2022-11-29T01:42:23.861Z,83.12
2022-11-29T01:47:23.810Z,82.87
2022-11-29T01:52:23.806Z,82.70
2022-11-29T01:57:23.658Z,82.91
2022-11-29T02:02:23.731Z,83.77
2022-11-29T02:07:23.623Z,83.39
2022-11-29T02:12:23.697Z,83.22
2022-11-29T02:42:22.118Z,85.11
2022-11-29T02:47:21.621Z,84.91
2022-11-29T02:52:21.677Z,84.66
2022-11-29T02:57:21.741Z,85.52
2022-11-29T04:48:15.552Z,84.45
2022-11-29T04:53:14.339Z,84.25
2022-11-29T05:03:01.076Z,84.00
2022-11-29T08:26:36.164Z,82.86
2022-11-29T08:31:36.148Z,82.45
2022-11-29T08:36:36.042Z,82.62
2022-11-29T08:41:36.019Z,80.83
2022-11-29T08:46:43.391Z,80.38
2022-11-29T09:58:44.619Z,81.64
2022-11-29T10:05:12.337Z,80.96
2022-11-29T10:37:21.834Z,83.46
2022-11-29T10:42:21.439Z,80.64
2022-11-29T11:04:09.660Z,81.20
2022-11-29T11:09:09.399Z,79.99
2022-11-29T11:14:10.592Z,78.93
2022-11-29T11:22:18.558Z,77.97
2022-11-29T11:27:18.532Z,80.13
2022-11-29T11:32:18.405Z,79.93
2022-11-29T11:37:18.238Z,80.37
2022-11-29T11:45:03.710Z,77.50
2022-11-29T11:50:03.351Z,79.62
2022-11-29T11:55:03.226Z,79.34
2022-11-29T12:00:06.985Z,78.42
2022-11-29T12:05:03.009Z,79.96
2022-11-29T12:10:02.998Z,78.11
2022-11-29T12:15:02.886Z,79.62
2022-11-29T12:20:02.677Z,77.94
2022-11-29T12:25:02.906Z,79.27
2022-11-29T12:30:02.612Z,77.73
2022-11-29T12:35:05.688Z,79.17
2022-11-29T12:40:02.592Z,79.66
2022-11-29T12:45:02.624Z,79.82
2022-11-29T12:50:02.308Z,79.11
2022-11-29T12:55:02.444Z,80.47
2022-11-29T13:00:02.317Z,78.80
2022-11-29T13:05:02.242Z,78.66
2022-11-29T13:10:02.035Z,78.90
2022-11-29T13:20:00.543Z,79.99
2022-11-29T13:30:17.456Z,78.05
2022-11-29T13:35:17.091Z,79.31
2022-11-29T13:40:17.251Z,78.66
2022-11-29T13:57:26.744Z,78.21
2022-11-29T14:02:26.599Z,79.03
2022-11-29T14:07:26.530Z,79.03
2022-11-29T14:13:56.888Z,79.00
2022-11-29T14:20:13.791Z,77.91
2022-11-29T14:25:42.926Z,79.03
2022-11-29T14:31:24.979Z,78.72
2022-11-29T14:36:24.715Z,79.44
2022-11-29T14:41:24.608Z,79.79
2022-11-29T14:46:29.034Z,80.60
2022-11-29T14:51:25.804Z,80.51
2022-11-29T14:56:24.342Z,80.30
2022-11-29T15:01:24.368Z,81.46
2022-11-29T15:06:24.242Z,80.68
2022-11-29T15:11:24.326Z,81.26
2022-11-29T15:16:24.114Z,81.46
2022-11-29T15:21:27.205Z,81.36
2022-11-29T15:26:23.957Z,82.01
2022-11-29T15:31:23.965Z,80.91
2022-11-29T15:36:23.783Z,80.64
2022-11-29T15:41:31.281Z,79.85
2022-11-29T15:46:23.641Z,80.64
2022-11-29T15:51:23.832Z,82.56
2022-11-29T15:56:23.625Z,83.22
2022-11-29T16:01:24.007Z,83.73
2022-11-29T16:06:23.465Z,84.49
2022-11-29T16:11:23.609Z,85.41
2022-11-29T16:16:23.383Z,83.49
2022-11-29T16:21:26.229Z,82.63
2022-11-29T16:26:23.228Z,83.28
2022-11-29T16:31:23.324Z,82.87
2022-11-29T16:36:23.064Z,82.83
2022-11-29T16:41:23.004Z,81.91
2022-11-29T16:46:22.875Z,82.32
2022-11-29T16:51:23.070Z,82.42
2022-11-29T16:56:22.859Z,81.91
2022-11-29T17:01:22.747Z,81.77
2022-11-29T17:06:22.653Z,82.12
2022-11-29T17:11:22.634Z,82.32
2022-11-29T17:16:22.922Z,82.53
2022-11-29T17:23:15.961Z,83.94
2022-11-29T17:28:15.992Z,84.45
2022-11-29T17:33:15.704Z,83.63
2022-11-29T17:38:15.602Z,83.39
2022-11-29T17:43:15.687Z,82.12
2022-11-29T17:48:15.471Z,82.01
2022-11-29T18:25:37.608Z,83.49
2022-11-29T18:36:33.908Z,82.36
2022-11-29T18:41:33.793Z,83.32
2022-11-29T18:56:38.002Z,82.56
2022-11-29T19:01:37.742Z,82.32
2022-11-29T19:30:35.387Z,83.18
2022-11-29T19:35:32.128Z,83.69
2022-11-29T19:54:12.707Z,82.67
2022-11-29T19:59:12.567Z,82.01
2022-11-29T20:04:12.262Z,82.12
2022-11-29T20:09:12.196Z,82.12
2022-11-29T20:14:12.079Z,81.91
2022-11-29T20:19:12.287Z,81.91
2022-11-29T20:24:12.050Z,83.39
2022-11-29T20:29:11.911Z,82.97
2022-11-29T20:34:12.143Z,82.46
2022-11-29T20:39:11.782Z,82.01
2022-11-29T20:44:14.908Z,82.53
2022-11-29T20:49:11.754Z,83.42
2022-11-29T20:54:11.671Z,82.32
2022-11-29T21:02:51.541Z,81.81
2022-11-29T21:07:51.184Z,82.42
2022-11-29T21:12:51.187Z,82.42
2022-11-29T21:17:50.980Z,82.36
2022-11-29T21:22:50.890Z,82.22
2022-11-29T21:27:50.957Z,82.01
2022-11-29T21:32:50.812Z,82.15
2022-11-29T21:37:50.805Z,82.77
2022-11-29T21:42:50.817Z,83.01
2022-11-29T21:47:50.803Z,82.77
2022-11-29T21:52:53.533Z,83.32
2022-11-29T21:57:50.552Z,85.25
2022-11-29T22:02:50.681Z,84.39
2022-11-29T22:07:50.354Z,84.49
2022-11-29T22:12:52.620Z,85.35
2022-11-29T22:17:50.297Z,85.90
2022-11-29T22:22:51.077Z,86.21
2022-11-29T22:27:50.126Z,84.80
2022-11-29T22:32:50.159Z,83.63
2022-11-29T22:42:12.291Z,83.56
2022-11-29T22:47:11.848Z,84.12
2022-11-29T22:52:12.029Z,83.56
2022-11-29T22:57:11.773Z,84.01
2022-11-29T23:02:11.940Z,85.08
2022-11-29T23:11:57.907Z,85.43
2022-11-29T23:16:57.645Z,85.14
2022-11-29T23:21:57.578Z,84.88
2022-11-29T23:26:57.471Z,84.42
2022-11-29T23:31:57.553Z,84.08
2022-11-29T23:36:57.459Z,83.32
2022-11-29T23:41:57.318Z,82.09
2022-11-29T23:46:57.372Z,83.29
2022-11-29T23:51:57.218Z,84.01
2022-11-29T23:56:57.138Z,83.01
